Time;durP1;ratioP1;P1;durP2;ratioP2;P2;SDS_P1;SDS_P2;PMS_P1;PMS_P2;Temp;Humidity;BMP_temperature;BMP_pressure;BME280_temperature;BME280_humidity;BME280_pressure;Samples;Min_cycle;Max_cycle;Signal;HPM_P1;HPM_P2
2024/01/26 00:01:03;;;;;;;;;;;19.70;57.00;;;;;;5037405;28;19925;-71
2024/01/26 00:03:28;;;;;;;;;;;19.70;57.00;;;;;;5037095;28;19925;-71
2024/01/26 00:05:54;;;;;;;;;;;19.70;57.00;;;;;;5036119;28;19972;-71
2024/01/26 00:08:19;;;;;;;;;;;19.70;57.10;;;;;;5029453;28;20384;-71
2024/01/26 00:10:45;;;;;;;;;;;19.70;57.10;;;;;;5035080;28;19978;-71
2024/01/26 00:13:10;;;;;;;;;;;19.60;57.00;;;;;;5016495;28;20333;-71
2024/01/26 00:15:36;;;;;;;;;;;19.60;57.00;;;;;;5034957;28;19925;-71
2024/01/26 00:18:01;;;;;;;;;;;19.60;57.00;;;;;;5016698;28;20385;-71
2024/01/26 00:20:27;;;;;;;;;;;19.60;57.00;;;;;;5016570;28;20369;-71
2024/01/26 00:22:52;;;;;;;;;;;19.60;57.00;;;;;;5019578;28;20296;-71
2024/01/26 00:25:18;;;;;;;;;;;19.60;57.10;;;;;;5035324;28;20330;-71
2024/01/26 00:27:43;;;;;;;;;;;19.60;57.00;;;;;;5026935;28;19972;-71
2024/01/26 00:30:09;;;;;;;;;;;19.60;57.10;;;;;;5035516;28;20053;-71
2024/01/26 00:32:34;;;;;;;;;;;19.60;57.00;;;;;;5018574;28;19932;-71
2024/01/26 00:35:00;;;;;;;;;;;19.60;57.00;;;;;;5016114;28;19987;-71
2024/01/26 00:37:25;;;;;;;;;;;19.50;57.00;;;;;;5035110;28;19971;-71
2024/01/26 00:39:51;;;;;;;;;;;19.60;57.00;;;;;;5028084;28;19929;-71
2024/01/26 00:42:16;;;;;;;;;;;19.50;57.00;;;;;;5033177;28;19970;-71
2024/01/26 00:44:42;;;;;;;;;;;19.50;56.90;;;;;;5026589;28;19936;-71
2024/01/26 00:47:08;;;;;;;;;;;19.50;57.00;;;;;;5034368;28;20297;-71
2024/01/26 00:49:33;;;;;;;;;;;19.50;57.00;;;;;;5019824;28;19932;-71
2024/01/26 00:51:59;;;;;;;;;;;19.50;57.00;;;;;;5035709;28;19925;-71
2024/01/26 00:54:24;;;;;;;;;;;19.50;57.00;;;;;;5035808;28;19931;-71
2024/01/26 00:56:50;;;;;;;;;;;19.50;56.90;;;;;;5036229;28;19956;-71
2024/01/26 00:59:16;;;;;;;;;;;19.50;57.00;;;;;;5020382;28;20016;-71
2024/01/26 01:01:41;;;;;;;;;;;19.50;57.00;;;;;;5022407;28;20384;-71
2024/01/26 01:04:07;;;;;;;;;;;19.50;57.00;;;;;;5035951;28;19925;-71
2024/01/26 01:06:32;;;;;;;;;;;19.50;57.00;;;;;;5054077;28;19929;-71
2024/01/26 01:08:57;;;;;;;;;;;19.50;57.00;;;;;;5052795;28;19924;-71
2024/01/26 01:11:23;;;;;;;;;;;19.50;57.00;;;;;;5034861;28;19932;-71
2024/01/26 01:13:49;;;;;;;;;;;19.40;56.90;;;;;;5025051;28;19976;-70
2024/01/26 01:16:17;;;;;;;;;;;19.50;57.00;;;;;;5033121;28;19925;-71
2024/01/26 01:18:43;;;;;;;;;;;19.40;56.90;;;;;;5025091;28;19929;-71
2024/01/26 01:21:08;;;;;;;;;;;19.40;56.90;;;;;;5015951;28;19995;-71
2024/01/26 01:23:34;;;;;;;;;;;19.40;57.00;;;;;;5015693;28;19925;-71
2024/01/26 01:25:59;;;;;;;;;;;19.40;57.00;;;;;;5015827;28;19980;-71
2024/01/26 01:28:25;;;;;;;;;;;19.40;57.00;;;;;;5015560;28;19932;-71
2024/01/26 01:30:50;;;;;;;;;;;19.40;57.00;;;;;;5032825;28;20332;-70
2024/01/26 01:33:16;;;;;;;;;;;19.40;57.00;;;;;;5015881;28;20016;-70
2024/01/26 01:35:41;;;;;;;;;;;19.40;57.00;;;;;;5016144;28;19933;-71
2024/01/26 01:38:07;;;;;;;;;;;19.40;57.00;;;;;;5014006;28;19952;-70
2024/01/26 01:40:32;;;;;;;;;;;19.40;57.00;;;;;;5033426;28;19936;-71
2024/01/26 01:42:58;;;;;;;;;;;19.40;57.00;;;;;;5015188;28;20383;-70
2024/01/26 01:45:23;;;;;;;;;;;19.40;57.00;;;;;;5015340;28;19978;-70
2024/01/26 01:47:49;;;;;;;;;;;19.40;57.00;;;;;;5015709;28;19925;-71
2024/01/26 01:50:14;;;;;;;;;;;19.30;56.90;;;;;;5020951;28;20375;-71
2024/01/26 01:52:43;;;;;;;;;;;19.40;57.00;;;;;;5019025;28;19925;-71
2024/01/26 01:55:09;;;;;;;;;;;19.30;57.00;;;;;;5035288;28;19924;-70
2024/01/26 01:57:34;;;;;;;;;;;19.30;57.00;;;;;;5023983;28;19925;-71
2024/01/26 02:00:01;;;;;;;;;;;19.30;56.90;;;;;;4989292;28;19929;-70
2024/01/26 02:02:27;;;;;;;;;;;19.30;56.90;;;;;;5013408;28;19926;-70
2024/01/26 02:04:52;;;;;;;;;;;19.30;56.90;;;;;;5004163;28;19935;-70
2024/01/26 02:07:18;;;;;;;;;;;19.30;57.00;;;;;;4995825;28;19956;-70
2024/01/26 02:09:43;;;;;;;;;;;19.30;56.90;;;;;;5012546;28;19972;-71
2024/01/26 02:12:09;;;;;;;;;;;19.20;56.90;;;;;;5024444;28;19952;-71
2024/01/26 02:14:34;;;;;;;;;;;19.30;57.00;;;;;;5037097;28;19964;-70
2024/01/26 02:17:00;;;;;;;;;;;19.30;57.00;;;;;;5034822;28;19931;-70
2024/01/26 02:19:26;;;;;;;;;;;19.30;57.00;;;;;;5034041;28;19925;-71
2024/01/26 02:21:52;;;;;;;;;;;19.30;57.00;;;;;;5034680;28;19932;-71
2024/01/26 02:24:17;;;;;;;;;;;19.20;56.90;;;;;;5034294;28;19925;-71
2024/01/26 02:26:43;;;;;;;;;;;19.20;56.90;;;;;;5033741;28;20360;-71
2024/01/26 02:29:09;;;;;;;;;;;19.20;56.90;;;;;;5014637;28;19932;-70
2024/01/26 02:31:34;;;;;;;;;;;19.20;57.00;;;;;;5034316;28;19924;-71
2024/01/26 02:34:00;;;;;;;;;;;19.20;57.00;;;;;;5052180;28;19921;-70
2024/01/26 02:36:28;;;;;;;;;;;19.20;56.90;;;;;;5035410;28;20023;-71
2024/01/26 02:38:54;;;;;;;;;;;19.20;57.00;;;;;;5014310;28;19988;-71
2024/01/26 02:41:20;;;;;;;;;;;19.20;57.00;;;;;;5029429;28;19928;-71
2024/01/26 02:43:45;;;;;;;;;;;19.20;56.90;;;;;;5039249;28;19968;-71
2024/01/26 02:46:11;;;;;;;;;;;19.20;57.00;;;;;;5021788;28;20466;-71
2024/01/26 02:48:36;;;;;;;;;;;19.20;57.00;;;;;;5009409;28;19924;-71
2024/01/26 02:51:02;;;;;;;;;;;19.20;57.00;;;;;;5038561;28;20506;-71
2024/01/26 02:53:27;;;;;;;;;;;19.20;57.00;;;;;;5038149;28;20400;-71
2024/01/26 02:55:53;;;;;;;;;;;19.20;57.00;;;;;;5056218;28;19939;-71
2024/01/26 02:58:18;;;;;;;;;;;19.10;56.90;;;;;;5022266;28;19960;-71
2024/01/26 03:00:44;;;;;;;;;;;19.10;56.90;;;;;;5026919;28;19932;-70
2024/01/26 03:03:09;;;;;;;;;;;19.10;57.00;;;;;;4998961;28;19933;-70
2024/01/26 03:05:35;;;;;;;;;;;19.10;57.00;;;;;;5024820;28;19933;-70
2024/01/26 03:08:01;;;;;;;;;;;19.10;57.00;;;;;;5014431;28;19968;-71
2024/01/26 03:10:27;;;;;;;;;;;19.10;57.00;;;;;;4998938;28;20274;-70
2024/01/26 03:12:52;;;;;;;;;;;19.10;57.00;;;;;;4998523;28;19929;-71
2024/01/26 03:15:18;;;;;;;;;;;19.10;56.90;;;;;;5008979;28;19932;-71
2024/01/26 03:17:43;;;;;;;;;;;19.10;57.00;;;;;;5018505;28;19925;-70
2024/01/26 03:20:09;;;;;;;;;;;19.10;57.00;;;;;;5036022;28;19925;-70
2024/01/26 03:22:34;;;;;;;;;;;19.10;57.00;;;;;;5035557;28;20028;-70
2024/01/26 03:25:01;;;;;;;;;;;19.10;57.00;;;;;;5041012;28;19960;-70
2024/01/26 03:27:27;;;;;;;;;;;19.10;57.00;;;;;;5055755;28;20066;-70
2024/01/26 03:29:53;;;;;;;;;;;19.10;57.00;;;;;;5033766;28;20398;-70
2024/01/26 03:32:18;;;;;;;;;;;19.10;57.00;;;;;;5035694;28;20019;-70
2024/01/26 03:34:44;;;;;;;;;;;19.00;57.00;;;;;;5034243;28;19932;-70
2024/01/26 03:37:10;;;;;;;;;;;19.10;57.10;;;;;;5035061;28;19925;-70
2024/01/26 03:39:35;;;;;;;;;;;19.10;57.00;;;;;;5030591;28;20015;-70
2024/01/26 03:42:01;;;;;;;;;;;19.10;57.00;;;;;;5025480;28;20056;-70
2024/01/26 03:44:26;;;;;;;;;;;19.10;57.00;;;;;;5034633;28;20294;-70
2024/01/26 03:46:52;;;;;;;;;;;19.10;56.90;;;;;;5026998;28;19930;-70
2024/01/26 03:49:17;;;;;;;;;;;19.10;57.00;;;;;;4995356;28;20019;-70
2024/01/26 03:51:43;;;;;;;;;;;19.10;57.00;;;;;;5010814;28;19926;-70
2024/01/26 03:54:08;;;;;;;;;;;19.10;57.00;;;;;;5024531;28;20373;-70
2024/01/26 03:56:34;;;;;;;;;;;19.10;57.00;;;;;;5034841;28;19929;-70
2024/01/26 03:58:59;;;;;;;;;;;19.10;57.10;;;;;;5033031;28;19925;-70
2024/01/26 04:01:25;;;;;;;;;;;19.10;57.00;;;;;;5035167;28;19983;-70
2024/01/26 04:03:50;;;;;;;;;;;19.10;57.00;;;;;;5034254;28;19925;-70
2024/01/26 04:06:16;;;;;;;;;;;19.10;57.00;;;;;;5034845;28;20257;-70
2024/01/26 04:08:41;;;;;;;;;;;19.10;57.00;;;;;;5034380;28;20020;-70
2024/01/26 04:11:07;;;;;;;;;;;19.20;57.10;;;;;;5032890;28;20262;-70
2024/01/26 04:13:32;;;;;;;;;;;19.20;57.00;;;;;;5033661;28;19929;-70
2024/01/26 04:15:58;;;;;;;;;;;19.20;57.00;;;;;;5024803;28;19933;-70
2024/01/26 04:18:23;;;;;;;;;;;19.20;57.00;;;;;;4993134;28;20016;-70
2024/01/26 04:20:49;;;;;;;;;;;19.20;57.00;;;;;;4994498;28;19926;-70
2024/01/26 04:23:14;;;;;;;;;;;19.20;56.90;;;;;;4994600;28;20033;-70
2024/01/26 04:25:40;;;;;;;;;;;19.20;57.00;;;;;;4994570;28;19957;-70
2024/01/26 04:28:05;;;;;;;;;;;19.20;57.00;;;;;;5001498;28;20284;-70
2024/01/26 04:30:31;;;;;;;;;;;19.20;57.00;;;;;;5033575;28;20023;-70
2024/01/26 04:32:57;;;;;;;;;;;19.30;57.00;;;;;;5032264;28;19948;-70
2024/01/26 04:35:22;;;;;;;;;;;19.30;57.00;;;;;;5033703;28;19933;-69
2024/01/26 04:37:48;;;;;;;;;;;19.30;57.00;;;;;;5015452;28;19925;-69
2024/01/26 04:40:13;;;;;;;;;;;19.30;57.00;;;;;;5012753;28;19925;-70
2024/01/26 04:42:39;;;;;;;;;;;19.30;56.90;;;;;;5023382;28;20063;-70
2024/01/26 04:45:04;;;;;;;;;;;19.30;56.90;;;;;;5033461;28;20261;-69
2024/01/26 04:47:30;;;;;;;;;;;19.40;57.00;;;;;;5014585;28;19922;-70
2024/01/26 04:49:55;;;;;;;;;;;19.40;56.90;;;;;;4994078;28;20019;-70
2024/01/26 04:52:21;;;;;;;;;;;19.40;56.90;;;;;;4994321;28;20388;-70
2024/01/26 04:54:48;;;;;;;;;;;19.40;56.90;;;;;;4998057;28;19936;-70
2024/01/26 04:57:13;;;;;;;;;;;19.40;56.90;;;;;;5024436;28;19937;-70
2024/01/26 04:59:39;;;;;;;;;;;19.50;57.00;;;;;;5010259;28;19930;-70
2024/01/26 05:02:04;;;;;;;;;;;19.50;56.90;;;;;;5002424;28;19980;-70
2024/01/26 05:04:30;;;;;;;;;;;19.50;56.90;;;;;;5010864;28;20265;-70
2024/01/26 05:06:56;;;;;;;;;;;19.50;57.00;;;;;;5012815;28;19984;-70
2024/01/26 05:09:21;;;;;;;;;;;19.50;56.90;;;;;;5024258;28;20024;-70
2024/01/26 05:11:47;;;;;;;;;;;19.50;56.90;;;;;;5033190;28;19925;-70
2024/01/26 05:14:12;;;;;;;;;;;19.50;56.90;;;;;;5032076;28;19993;-70
2024/01/26 05:16:38;;;;;;;;;;;19.50;56.90;;;;;;5034315;28;19929;-70
2024/01/26 05:19:04;;;;;;;;;;;19.50;56.90;;;;;;5021112;28;19932;-70
2024/01/26 05:21:29;;;;;;;;;;;19.60;56.90;;;;;;4992829;28;20020;-70
2024/01/26 05:23:55;;;;;;;;;;;19.60;56.90;;;;;;5010737;28;20012;-70
2024/01/26 05:26:20;;;;;;;;;;;19.60;56.90;;;;;;5012149;28;19936;-69
2024/01/26 05:28:46;;;;;;;;;;;19.60;56.90;;;;;;5015414;28;20362;-69
2024/01/26 05:31:12;;;;;;;;;;;19.60;56.90;;;;;;5015911;28;19929;-69
2024/01/26 05:33:37;;;;;;;;;;;19.60;56.90;;;;;;5033783;28;19967;-70
2024/01/26 05:36:03;;;;;;;;;;;19.60;56.90;;;;;;5016724;28;19929;-69
2024/01/26 05:38:29;;;;;;;;;;;19.60;56.80;;;;;;5052848;28;19929;-69
2024/01/26 05:40:54;;;;;;;;;;;19.60;56.90;;;;;;5031824;28;19982;-69
2024/01/26 05:43:20;;;;;;;;;;;19.60;56.80;;;;;;5034171;28;19925;-69
2024/01/26 05:45:45;;;;;;;;;;;19.70;56.80;;;;;;5053498;28;19944;-70
2024/01/26 05:48:11;;;;;;;;;;;19.70;56.80;;;;;;5035255;28;20361;-70
2024/01/26 05:50:38;;;;;;;;;;;19.70;56.80;;;;;;5020025;28;19968;-70
2024/01/26 05:53:03;;;;;;;;;;;19.70;56.80;;;;;;5013316;28;19929;-70
2024/01/26 05:55:29;;;;;;;;;;;19.70;56.80;;;;;;4996141;28;19932;-70
2024/01/26 05:57:54;;;;;;;;;;;19.70;56.80;;;;;;4995212;28;19932;-69
2024/01/26 06:00:20;;;;;;;;;;;19.70;56.80;;;;;;4996118;28;19925;-69
2024/01/26 06:02:45;;;;;;;;;;;19.70;56.80;;;;;;5011846;28;19925;-69
2024/01/26 06:05:11;;;;;;;;;;;19.70;56.80;;;;;;5034485;28;20019;-69
2024/01/26 06:07:36;;;;;;;;;;;19.80;56.80;;;;;;5035390;28;19925;-70
2024/01/26 06:10:02;;;;;;;;;;;19.70;56.70;;;;;;5034856;28;20395;-70
2024/01/26 06:12:27;;;;;;;;;;;19.80;56.80;;;;;;5052301;28;19972;-70
2024/01/26 06:14:53;;;;;;;;;;;19.80;56.80;;;;;;5034032;28;20380;-70
2024/01/26 06:17:18;;;;;;;;;;;19.80;56.80;;;;;;5052406;28;19925;-70
2024/01/26 06:19:44;;;;;;;;;;;19.80;56.80;;;;;;5020750;28;20361;-70
2024/01/26 06:22:09;;;;;;;;;;;19.80;56.80;;;;;;5014916;28;19925;-70
2024/01/26 06:24:35;;;;;;;;;;;19.80;56.80;;;;;;5014933;28;19948;-70
2024/01/26 06:27:00;;;;;;;;;;;19.80;56.80;;;;;;5032672;28;19929;-70
2024/01/26 06:29:26;;;;;;;;;;;19.80;56.80;;;;;;5015213;28;19948;-69
2024/01/26 06:31:52;;;;;;;;;;;19.80;56.80;;;;;;5013994;28;19979;-70
2024/01/26 06:34:17;;;;;;;;;;;19.80;56.70;;;;;;5012075;28;19979;-70
2024/01/26 06:36:43;;;;;;;;;;;19.80;56.70;;;;;;4995776;28;20277;-70
2024/01/26 06:39:08;;;;;;;;;;;19.80;56.70;;;;;;4993973;28;19925;-70
2024/01/26 06:41:37;;;;;;;;;;;19.80;56.80;;;;;;4996755;28;19990;-70
2024/01/26 06:44:05;;;;;;;;;;;19.80;56.70;;;;;;5034558;28;19986;-70
2024/01/26 06:46:30;;;;;;;;;;;19.80;56.70;;;;;;5034535;28;20440;-70
2024/01/26 06:48:56;;;;;;;;;;;19.80;56.70;;;;;;5034269;28;19962;-71
2024/01/26 06:51:21;;;;;;;;;;;19.90;56.80;;;;;;5034886;28;19925;-70
2024/01/26 06:53:47;;;;;;;;;;;19.90;56.70;;;;;;5034307;28;19925;-70
2024/01/26 06:56:12;;;;;;;;;;;19.90;56.80;;;;;;5034549;28;19936;-70
2024/01/26 06:58:38;;;;;;;;;;;19.90;56.80;;;;;;5034626;28;19968;-70
2024/01/26 07:01:03;;;;;;;;;;;19.90;56.80;;;;;;5051669;28;19929;-70
2024/01/26 07:03:29;;;;;;;;;;;19.90;56.80;;;;;;5035095;28;20261;-70
2024/01/26 07:05:54;;;;;;;;;;;19.90;56.70;;;;;;5052303;28;19924;-70
2024/01/26 07:08:20;;;;;;;;;;;19.90;56.80;;;;;;5034349;28;19929;-70
2024/01/26 07:10:45;;;;;;;;;;;19.90;56.70;;;;;;5035008;28;19925;-70
2024/01/26 07:13:11;;;;;;;;;;;19.90;56.70;;;;;;5034445;28;20314;-70
2024/01/26 07:15:36;;;;;;;;;;;19.90;56.70;;;;;;5034160;28;19975;-71
2024/01/26 07:18:02;;;;;;;;;;;19.90;56.70;;;;;;5034194;28;20027;-69
2024/01/26 07:20:27;;;;;;;;;;;19.90;56.70;;;;;;5052506;28;19932;-69
2024/01/26 07:22:53;;;;;;;;;;;19.90;56.70;;;;;;5033435;28;19936;-71
2024/01/26 07:25:19;;;;;;;;;;;19.90;56.70;;;;;;5034623;28;19932;-72
2024/01/26 07:27:46;;;;;;;;;;;19.90;56.80;;;;;;5034676;28;19925;-72
2024/01/26 07:30:11;;;;;;;;;;;20.00;56.90;;;;;;5037750;28;19991;-68
2024/01/26 07:32:37;;;;;;;;;;;19.90;56.90;;;;;;5038427;28;19979;-67
2024/01/26 07:35:03;;;;;;;;;;;19.90;57.20;;;;;;5054890;28;19925;-68
2024/01/26 07:37:29;;;;;;;;;;;20.00;57.30;;;;;;5038007;28;20017;-70
2024/01/26 07:39:54;;;;;;;;;;;20.00;57.30;;;;;;5037825;28;20002;-68
2024/01/26 07:42:20;;;;;;;;;;;20.00;57.30;;;;;;5054784;28;19925;-70
2024/01/26 07:44:45;;;;;;;;;;;20.00;57.40;;;;;;5038066;28;19925;-69
2024/01/26 07:47:11;;;;;;;;;;;20.00;57.40;;;;;;5055575;28;20871;-71
2024/01/26 07:49:36;;;;;;;;;;;20.00;57.50;;;;;;5025889;28;20063;-70
2024/01/26 07:52:02;;;;;;;;;;;20.10;57.50;;;;;;5023656;28;19936;-72
2024/01/26 07:54:27;;;;;;;;;;;20.10;57.70;;;;;;5015140;28;19921;-71
2024/01/26 07:56:53;;;;;;;;;;;20.10;57.80;;;;;;5010121;28;19952;-70
2024/01/26 07:59:18;;;;;;;;;;;20.10;57.80;;;;;;5009801;28;19929;-70
2024/01/26 08:01:44;;;;;;;;;;;20.10;57.70;;;;;;5007282;28;19976;-70
2024/01/26 08:04:09;;;;;;;;;;;20.10;57.60;;;;;;5019965;28;19925;-71
2024/01/26 08:06:35;;;;;;;;;;;20.10;57.60;;;;;;5011135;28;19964;-67
2024/01/26 08:09:00;;;;;;;;;;;20.10;57.60;;;;;;5022523;28;19930;-68
2024/01/26 08:11:26;;;;;;;;;;;20.10;57.60;;;;;;5011575;28;19933;-68
2024/01/26 08:13:51;;;;;;;;;;;20.10;57.70;;;;;;5012755;28;19922;-70
2024/01/26 08:16:17;;;;;;;;;;;20.10;57.90;;;;;;5013507;28;19983;-69
2024/01/26 08:18:42;;;;;;;;;;;20.10;57.90;;;;;;5007811;28;20013;-69
2024/01/26 08:21:08;;;;;;;;;;;20.10;58.00;;;;;;5011744;28;20016;-69
2024/01/26 08:23:33;;;;;;;;;;;20.10;58.00;;;;;;5011607;28;20377;-70
2024/01/26 08:25:59;;;;;;;;;;;20.20;58.00;;;;;;5018169;28;19963;-72
2024/01/26 08:28:25;;;;;;;;;;;20.20;58.00;;;;;;5012351;28;19932;-71
2024/01/26 08:30:51;;;;;;;;;;;20.10;57.90;;;;;;5006306;28;19925;-68
2024/01/26 08:33:16;;;;;;;;;;;20.20;58.00;;;;;;5010644;28;19925;-70
2024/01/26 08:35:42;;;;;;;;;;;20.20;58.10;;;;;;5011954;28;20391;-69
2024/01/26 08:38:07;;;;;;;;;;;20.20;58.10;;;;;;5009058;28;19925;-70
2024/01/26 08:40:33;;;;;;;;;;;20.20;58.00;;;;;;5020294;28;19955;-70
2024/01/26 08:42:58;;;;;;;;;;;20.20;57.90;;;;;;5012887;28;19925;-70
2024/01/26 08:45:24;;;;;;;;;;;20.10;57.90;;;;;;5021358;28;19952;-70
2024/01/26 08:47:50;;;;;;;;;;;20.10;57.90;;;;;;5002265;28;19971;-69
2024/01/26 08:50:15;;;;;;;;;;;20.10;57.90;;;;;;5005992;28;19948;-70
2024/01/26 08:52:41;;;;;;;;;;;20.10;57.90;;;;;;5011150;28;19975;-70
2024/01/26 08:55:07;;;;;;;;;;;20.10;57.90;;;;;;5022928;28;20373;-70
2024/01/26 08:57:32;;;;;;;;;;;20.10;57.90;;;;;;5001316;28;19973;-70
2024/01/26 08:59:59;;;;;;;;;;;20.10;57.90;;;;;;5019023;28;20007;-69
2024/01/26 09:02:25;;;;;;;;;;;20.10;57.90;;;;;;5005046;28;20393;-70
2024/01/26 09:04:53;;;;;;;;;;;20.10;57.90;;;;;;5012807;28;20006;-70
2024/01/26 09:07:21;;;;;;;;;;;20.00;57.90;;;;;;5003989;28;19931;-70
2024/01/26 09:09:47;;;;;;;;;;;20.10;57.90;;;;;;5008143;28;19926;-70
2024/01/26 09:12:12;;;;;;;;;;;20.10;57.90;;;;;;5017926;28;19925;-69
2024/01/26 09:14:38;;;;;;;;;;;20.00;57.90;;;;;;5014494;28;20303;-70
2024/01/26 09:17:03;;;;;;;;;;;20.10;58.00;;;;;;5033994;28;20351;-70
2024/01/26 09:19:29;;;;;;;;;;;20.00;57.90;;;;;;5034001;28;19929;-70
2024/01/26 09:21:54;;;;;;;;;;;20.00;57.80;;;;;;5009585;28;19925;-70
2024/01/26 09:24:19;;;;;;;;;;;20.00;57.80;;;;;;5027901;28;19925;-70
2024/01/26 09:26:45;;;;;;;;;;;20.00;57.80;;;;;;5008910;28;19926;-70
2024/01/26 09:29:11;;;;;;;;;;;20.00;57.80;;;;;;5026197;28;19977;-70
2024/01/26 09:31:36;;;;;;;;;;;20.00;57.80;;;;;;5003549;28;19933;-70
2024/01/26 09:34:02;;;;;;;;;;;20.00;57.80;;;;;;5028560;28;19925;-70
2024/01/26 09:36:28;;;;;;;;;;;20.00;57.80;;;;;;5007291;28;19925;-69
2024/01/26 09:38:53;;;;;;;;;;;20.00;57.80;;;;;;5025033;28;19936;-70
2024/01/26 09:41:19;;;;;;;;;;;20.00;57.90;;;;;;5009498;28;19933;-70
2024/01/26 09:43:45;;;;;;;;;;;19.90;57.80;;;;;;5009318;28;19929;-70
2024/01/26 09:46:10;;;;;;;;;;;19.90;57.80;;;;;;4998867;28;19925;-70
2024/01/26 09:48:36;;;;;;;;;;;19.90;57.80;;;;;;5002656;28;20272;-71
2024/01/26 09:51:01;;;;;;;;;;;19.90;57.80;;;;;;4992973;28;19972;-70
2024/01/26 09:53:27;;;;;;;;;;;19.90;58.00;;;;;;4988989;28;19934;-71
2024/01/26 09:55:53;;;;;;;;;;;19.90;58.00;;;;;;5003149;28;19926;-70
2024/01/26 09:58:18;;;;;;;;;;;19.90;58.10;;;;;;5008603;28;19932;-71
2024/01/26 10:00:45;;;;;;;;;;;19.90;58.10;;;;;;5010594;28;20016;-71
2024/01/26 10:03:11;;;;;;;;;;;19.90;58.10;;;;;;5005268;28;20464;-70
2024/01/26 10:05:37;;;;;;;;;;;19.90;58.00;;;;;;5009560;28;20019;-71
2024/01/26 10:08:12;;;;;;;;;;;19.90;58.70;;;;;;5005548;28;19925;-70
2024/01/26 10:10:38;;;;;;;;;;;19.90;58.00;;;;;;5010890;28;20066;-71
2024/01/26 10:13:04;;;;;;;;;;;19.90;58.00;;;;;;5021359;28;20008;-71
2024/01/26 10:15:29;;;;;;;;;;;19.90;58.00;;;;;;4998276;28;19925;-71
2024/01/26 10:17:55;;;;;;;;;;;19.90;57.90;;;;;;5009749;28;19930;-71
2024/01/26 10:20:20;;;;;;;;;;;19.90;57.90;;;;;;5017274;28;19925;-71
2024/01/26 10:22:46;;;;;;;;;;;19.90;57.80;;;;;;5020718;28;20296;-71
2024/01/26 10:25:12;;;;;;;;;;;19.90;57.80;;;;;;5017338;28;19930;-71
2024/01/26 10:27:37;;;;;;;;;;;19.80;57.60;;;;;;5010608;28;19921;-72
2024/01/26 10:30:04;;;;;;;;;;;19.90;57.80;;;;;;5005146;28;20304;-71
2024/01/26 10:32:30;;;;;;;;;;;19.80;57.60;;;;;;5008411;28;19933;-70
2024/01/26 10:34:56;;;;;;;;;;;19.80;57.60;;;;;;5018255;28;19929;-68
2024/01/26 10:37:21;;;;;;;;;;;19.80;57.60;;;;;;5016544;28;20340;-69
2024/01/26 10:39:47;;;;;;;;;;;19.80;57.70;;;;;;5001290;28;19925;-67
2024/01/26 10:42:13;;;;;;;;;;;19.80;57.90;;;;;;4998833;28;19933;-69
2024/01/26 10:44:38;;;;;;;;;;;19.80;58.00;;;;;;5009378;28;19925;-71
2024/01/26 10:47:04;;;;;;;;;;;19.80;58.00;;;;;;5006767;28;19975;-71
2024/01/26 10:49:30;;;;;;;;;;;19.80;57.90;;;;;;5005147;28;20405;-72
2024/01/26 10:51:55;;;;;;;;;;;19.80;57.80;;;;;;5001992;28;19929;-67
2024/01/26 10:54:23;;;;;;;;;;;19.80;58.50;;;;;;4991436;28;19921;-72
2024/01/26 10:56:48;;;;;;;;;;;19.80;58.20;;;;;;5003532;28;19932;-71
2024/01/26 10:59:16;;;;;;;;;;;19.80;58.10;;;;;;5007369;28;19929;-70
2024/01/26 11:01:41;;;;;;;;;;;19.80;58.30;;;;;;5022499;28;19948;-68
2024/01/26 11:04:11;;;;;;;;;;;19.80;58.50;;;;;;5019331;28;20361;-70
2024/01/26 11:06:36;;;;;;;;;;;19.80;58.50;;;;;;5006346;28;19921;-66
2024/01/26 11:09:08;;;;;;;;;;;19.80;58.50;;;;;;5023004;28;19932;-67
2024/01/26 11:11:37;;;;;;;;;;;19.80;58.50;;;;;;5014486;28;19928;-65
2024/01/26 11:14:02;;;;;;;;;;;19.80;58.50;;;;;;5022573;28;19933;-66
2024/01/26 11:16:35;;;;;;;;;;;19.80;58.30;;;;;;5024486;28;19921;-67
2024/01/26 11:19:01;;;;;;;;;;;19.80;58.30;;;;;;5026993;28;20015;-67
2024/01/26 11:21:39;;;;;;;;;;;19.80;58.40;;;;;;5013754;28;19925;-67
2024/01/26 11:24:17;;;;;;;;;;;19.80;58.30;;;;;;5011331;28;19967;-68
2024/01/26 11:26:54;;;;;;;;;;;19.80;58.30;;;;;;5012948;28;19929;-68
2024/01/26 11:29:19;;;;;;;;;;;19.80;58.40;;;;;;5002207;28;19952;-68
2024/01/26 11:31:45;;;;;;;;;;;19.80;58.40;;;;;;5003270;28;19953;-67
2024/01/26 11:34:17;;;;;;;;;;;19.80;58.40;;;;;;4999639;28;20378;-65
2024/01/26 11:36:43;;;;;;;;;;;19.80;58.40;;;;;;5008048;28;19979;-70
2024/01/26 11:39:13;;;;;;;;;;;19.80;58.10;;;;;;5014533;28;19929;-71
2024/01/26 11:41:41;;;;;;;;;;;19.80;58.00;;;;;;4997848;28;19926;-71
2024/01/26 11:44:06;;;;;;;;;;;19.80;57.90;;;;;;5014290;28;19925;-71
2024/01/26 11:46:32;;;;;;;;;;;19.80;57.90;;;;;;4997109;28;19933;-71
2024/01/26 11:48:57;;;;;;;;;;;19.80;58.00;;;;;;4996115;28;19926;-71
2024/01/26 11:51:23;;;;;;;;;;;19.80;58.00;;;;;;4995338;28;19949;-71
2024/01/26 11:53:48;;;;;;;;;;;19.80;57.90;;;;;;4994845;28;20361;-70
2024/01/26 11:56:14;;;;;;;;;;;19.80;57.90;;;;;;4977625;28;20290;-70
2024/01/26 11:58:39;;;;;;;;;;;19.80;57.80;;;;;;4995256;28;19977;-70
2024/01/26 12:01:06;;;;;;;;;;;19.70;57.80;;;;;;4995953;28;19949;-69
2024/01/26 12:03:31;;;;;;;;;;;19.70;57.60;;;;;;4996173;28;20421;-70
2024/01/26 12:05:57;;;;;;;;;;;19.70;57.60;;;;;;5007530;28;19932;-71
2024/01/26 12:08:24;;;;;;;;;;;19.70;57.80;;;;;;5006368;28;19925;-71
2024/01/26 12:10:50;;;;;;;;;;;19.70;57.90;;;;;;5007848;28;19948;-68
2024/01/26 12:13:15;;;;;;;;;;;19.70;57.90;;;;;;5005001;28;19926;-68
2024/01/26 12:15:41;;;;;;;;;;;19.70;58.00;;;;;;5001702;28;20033;-70
2024/01/26 12:18:10;;;;;;;;;;;19.70;58.10;;;;;;5007669;28;19926;-68
2024/01/26 12:20:35;;;;;;;;;;;19.70;58.00;;;;;;5003594;28;19925;-68
2024/01/26 12:23:01;;;;;;;;;;;19.70;58.20;;;;;;5000670;28;19952;-68
2024/01/26 12:25:27;;;;;;;;;;;19.70;58.00;;;;;;5008179;28;19971;-69
2024/01/26 12:27:56;;;;;;;;;;;19.70;58.10;;;;;;5008027;28;19926;-68
2024/01/26 12:30:21;;;;;;;;;;;19.70;58.00;;;;;;5019423;28;19932;-70
2024/01/26 12:32:47;;;;;;;;;;;19.70;58.00;;;;;;5003105;28;19926;-69
2024/01/26 12:35:12;;;;;;;;;;;19.70;57.80;;;;;;5010124;28;20044;-70
2024/01/26 12:37:38;;;;;;;;;;;19.70;57.70;;;;;;5020445;28;19926;-72
2024/01/26 12:40:06;;;;;;;;;;;19.70;57.70;;;;;;5024294;28;20436;-73
2024/01/26 12:42:31;;;;;;;;;;;19.70;57.50;;;;;;5019328;28;19973;-74
2024/01/26 12:44:57;;;;;;;;;;;19.80;57.30;;;;;;5010129;28;19964;-67
2024/01/26 12:47:23;;;;;;;;;;;19.90;57.30;;;;;;5020039;28;19928;-68
2024/01/26 12:49:49;;;;;;;;;;;19.90;57.20;;;;;;5011442;28;19949;-65
2024/01/26 12:52:16;;;;;;;;;;;19.90;56.90;;;;;;5004286;28;19991;-76
2024/01/26 12:54:42;;;;;;;;;;;19.90;56.90;;;;;;4994160;28;20001;-67
2024/01/26 12:57:07;;;;;;;;;;;19.90;56.70;;;;;;5011967;28;19937;-65
2024/01/26 12:59:33;;;;;;;;;;;19.90;56.70;;;;;;5002400;28;20328;-73
2024/01/26 13:01:58;;;;;;;;;;;20.00;56.70;;;;;;5006510;28;20065;-64
2024/01/26 13:04:24;;;;;;;;;;;20.00;56.60;;;;;;4996380;28;20011;-63
2024/01/26 13:06:50;;;;;;;;;;;20.00;56.50;;;;;;5019504;28;19927;-64
2024/01/26 13:09:15;;;;;;;;;;;20.00;56.40;;;;;;5001769;28;19925;-64
2024/01/26 13:11:41;;;;;;;;;;;20.00;56.40;;;;;;5010675;28;20357;-65
2024/01/26 13:14:06;;;;;;;;;;;20.00;56.30;;;;;;4997494;28;20022;-64
2024/01/26 13:16:37;;;;;;;;;;;20.00;56.30;;;;;;5010759;28;19969;-64
2024/01/26 13:19:02;;;;;;;;;;;20.00;56.30;;;;;;5023863;28;20269;-65
2024/01/26 13:21:28;;;;;;;;;;;20.00;56.10;;;;;;5014030;28;20395;-65
2024/01/26 13:23:53;;;;;;;;;;;20.00;56.00;;;;;;5015286;28;20493;-64
2024/01/26 13:26:19;;;;;;;;;;;20.00;56.10;;;;;;5014838;28;20328;-64
2024/01/26 13:28:44;;;;;;;;;;;20.00;56.10;;;;;;5015680;28;20023;-65
2024/01/26 13:31:10;;;;;;;;;;;20.00;56.10;;;;;;5033030;28;20019;-65
2024/01/26 13:33:35;;;;;;;;;;;20.00;56.10;;;;;;5011203;28;19925;-65
2024/01/26 13:36:01;;;;;;;;;;;20.00;56.10;;;;;;5015166;28;20011;-66
2024/01/26 13:38:28;;;;;;;;;;;20.00;56.20;;;;;;5015191;28;19956;-64
2024/01/26 13:40:54;;;;;;;;;;;20.00;56.20;;;;;;5013988;28;19925;-68
2024/01/26 13:43:20;;;;;;;;;;;20.00;56.30;;;;;;4998715;28;19932;-67
2024/01/26 13:45:45;;;;;;;;;;;20.00;56.40;;;;;;4997991;28;19925;-65
2024/01/26 13:48:11;;;;;;;;;;;20.00;56.40;;;;;;5014680;28;20379;-65
2024/01/26 13:50:38;;;;;;;;;;;20.10;56.50;;;;;;5015537;28;19967;-67
2024/01/26 13:53:03;;;;;;;;;;;20.10;56.50;;;;;;5032763;28;20278;-66
2024/01/26 13:55:29;;;;;;;;;;;20.10;56.50;;;;;;5014596;28;19979;-67
2024/01/26 13:57:55;;;;;;;;;;;20.10;56.50;;;;;;5032544;28;19968;-67
2024/01/26 14:00:20;;;;;;;;;;;20.10;56.50;;;;;;5032962;28;20428;-64
2024/01/26 14:02:46;;;;;;;;;;;20.20;56.60;;;;;;5013855;28;19960;-65
2024/01/26 14:05:11;;;;;;;;;;;20.20;56.60;;;;;;5014800;28;19929;-66
2024/01/26 14:07:37;;;;;;;;;;;20.20;56.50;;;;;;5013093;28;20024;-67